Airport Name : Khanty Mansiysk

Other Name : Khanty Mansiysk

ICAO : USHH

IATA : HMA

FAA :

Latitude : 61.028479

Longitude : 69.086067

Country : Russia

Local Date and Time : 21 Apr 2024 09:33

 

TAF (Terminal Aerodrome Forecast)

TAF USHH 210134Z 2103/2203 06003G08MPS 6000 FEW004 BKN016CB TEMPO 2103/2106 VRB01MPS 0500 +FZRA FZFG VV002 BECMG 2106/2108 27003G12MPS TEMPO 2106/2112 5000 -SHSNRA SCT003 BKN016CB

 

METAR (METeorological Aerodrome Report)

USHH 210400Z 36002MPS 300V030 9999 SCT014 01/M02 Q1020 R06/290050 NOSIG

USHH 210330Z 03002MPS 9999 SCT023 01/M01 Q1019 R06/290050 NOSIG

USHH 210300Z 05002MPS 9999 SCT025 00/M01 Q1019 R06/290050 NOSIG

USHH 210230Z 01002MPS 9999 SCT027 00/M01 Q1020 R06/290050 NOSIG

USHH 210200Z 05002MPS 9999 SCT029 00/M01 Q1020 R06/290050 NOSIG

USHH 210130Z 00000MPS 9999 FEW032 00/M01 Q1019 R06/290050 NOSIG

USHH 210100Z 07002MPS CAVOK M00/M01 Q1019 R06/290050 TEMPO 0500 FZFG VV002